sensor_id;sensor_type;location;lat;lon;timestamp;P1;durP1;ratioP1;P2;durP2;ratioP2
13319;SDS011;59599;47.608;12.190;2023-08-12T01:41:58;4.05;;;2.83;;
13319;SDS011;59599;47.608;12.190;2023-08-12T01:44:25;4.35;;;3.08;;
13319;SDS011;59599;47.608;12.190;2023-08-12T01:46:51;5.03;;;2.65;;
13319;SDS011;59599;47.608;12.190;2023-08-12T01:49:16;3.25;;;2.70;;
13319;SDS011;59599;47.608;12.190;2023-08-12T01:51:42;6.13;;;3.28;;
13319;SDS011;59599;47.608;12.190;2023-08-12T01:54:08;6.78;;;3.95;;
13319;SDS011;59599;47.608;12.190;2023-08-12T01:56:34;4.60;;;3.50;;
13319;SDS011;59599;47.608;12.190;2023-08-12T01:59:00;7.20;;;3.60;;
13319;SDS011;59599;47.608;12.190;2023-08-12T02:01:26;5.85;;;2.83;;
13319;SDS011;59599;47.608;12.190;2023-08-12T02:03:52;3.20;;;2.45;;
13319;SDS011;59599;47.608;12.190;2023-08-12T02:06:18;5.20;;;2.88;;
13319;SDS011;59599;47.608;12.190;2023-08-12T02:08:44;4.40;;;2.75;;
13319;SDS011;59599;47.608;12.190;2023-08-12T02:11:10;3.03;;;2.63;;
13319;SDS011;59599;47.608;12.190;2023-08-12T02:13:36;4.95;;;2.70;;
13319;SDS011;59599;47.608;12.190;2023-08-12T02:16:02;3.20;;;2.88;;
13319;SDS011;59599;47.608;12.190;2023-08-12T02:18:28;4.28;;;2.75;;
13319;SDS011;59599;47.608;12.190;2023-08-12T02:20:54;6.03;;;3.08;;
13319;SDS011;59599;47.608;12.190;2023-08-12T02:23:20;3.22;;;2.70;;
13319;SDS011;59599;47.608;12.190;2023-08-12T02:25:46;5.70;;;2.90;;
13319;SDS011;59599;47.608;12.190;2023-08-12T02:28:12;3.75;;;2.80;;
13319;SDS011;59599;47.608;12.190;2023-08-12T02:30:38;4.30;;;2.78;;
13319;SDS011;59599;47.608;12.190;2023-08-12T02:33:03;5.43;;;2.42;;
13319;SDS011;59599;47.608;12.190;2023-08-12T02:35:29;4.50;;;2.40;;
13319;SDS011;59599;47.608;12.190;2023-08-12T02:37:55;3.10;;;2.53;;
13319;SDS011;59599;47.608;12.190;2023-08-12T02:40:21;2.90;;;2.60;;
13319;SDS011;59599;47.608;12.190;2023-08-12T02:42:47;2.72;;;2.53;;
13319;SDS011;59599;47.608;12.190;2023-08-12T02:45:13;9.20;;;2.67;;
13319;SDS011;59599;47.608;12.190;2023-08-12T02:47:39;2.80;;;2.58;;
13319;SDS011;59599;47.608;12.190;2023-08-12T02:50:05;4.45;;;2.53;;
13319;SDS011;59599;47.608;12.190;2023-08-12T02:52:31;3.22;;;2.70;;
13319;SDS011;59599;47.608;12.190;2023-08-12T02:54:57;3.30;;;2.90;;
13319;SDS011;59599;47.608;12.190;2023-08-12T02:57:26;4.45;;;2.72;;
13319;SDS011;59599;47.608;12.190;2023-08-12T02:59:51;4.05;;;2.92;;
13319;SDS011;59599;47.608;12.190;2023-08-12T03:02:17;3.97;;;2.70;;
13319;SDS011;59599;47.608;12.190;2023-08-12T03:04:43;5.47;;;2.38;;
13319;SDS011;59599;47.608;12.190;2023-08-12T03:07:09;3.90;;;2.70;;
13319;SDS011;59599;47.608;12.190;2023-08-12T03:09:35;2.90;;;2.47;;
13319;SDS011;59599;47.608;12.190;2023-08-12T03:12:01;5.53;;;2.60;;
13319;SDS011;59599;47.608;12.190;2023-08-12T03:14:28;5.07;;;2.63;;
13319;SDS011;59599;47.608;12.190;2023-08-12T03:16:54;4.45;;;2.67;;
13319;SDS011;59599;47.608;12.190;2023-08-12T03:19:20;3.10;;;2.80;;
13319;SDS011;59599;47.608;12.190;2023-08-12T03:21:46;3.10;;;2.80;;
13319;SDS011;59599;47.608;12.190;2023-08-12T03:24:12;3.88;;;2.85;;
13319;SDS011;59599;47.608;12.190;2023-08-12T03:26:37;3.58;;;2.92;;
13319;SDS011;59599;47.608;12.190;2023-08-12T03:29:03;2.72;;;2.45;;
13319;SDS011;59599;47.608;12.190;2023-08-12T03:31:29;4.00;;;2.83;;
13319;SDS011;59599;47.608;12.190;2023-08-12T03:33:55;4.75;;;3.00;;
13319;SDS011;59599;47.608;12.190;2023-08-12T03:36:21;4.07;;;2.90;;
13319;SDS011;59599;47.608;12.190;2023-08-12T03:38:47;3.08;;;2.78;;
13319;SDS011;59599;47.608;12.190;2023-08-12T03:41:13;2.78;;;2.58;;
13319;SDS011;59599;47.608;12.190;2023-08-12T03:43:38;3.78;;;2.92;;
13319;SDS011;59599;47.608;12.190;2023-08-12T03:46:04;4.30;;;2.47;;
13319;SDS011;59599;47.608;12.190;2023-08-12T03:48:30;3.25;;;2.95;;
13319;SDS011;59599;47.608;12.190;2023-08-12T03:50:56;4.13;;;2.47;;
13319;SDS011;59599;47.608;12.190;2023-08-12T03:53:22;3.63;;;2.55;;
13319;SDS011;59599;47.608;12.190;2023-08-12T03:55:48;4.53;;;2.65;;
13319;SDS011;59599;47.608;12.190;2023-08-12T03:58:14;5.15;;;2.50;;
13319;SDS011;59599;47.608;12.190;2023-08-12T04:00:42;3.22;;;2.72;;
13319;SDS011;59599;47.608;12.190;2023-08-12T04:03:08;3.55;;;2.80;;
13319;SDS011;59599;47.608;12.190;2023-08-12T04:05:34;3.80;;;2.55;;
13319;SDS011;59599;47.608;12.190;2023-08-12T04:08:01;4.78;;;2.80;;
13319;SDS011;59599;47.608;12.190;2023-08-12T04:10:27;3.35;;;2.35;;
13319;SDS011;59599;47.608;12.190;2023-08-12T04:12:52;3.05;;;2.50;;
13319;SDS011;59599;47.608;12.190;2023-08-12T04:15:18;3.28;;;2.50;;
13319;SDS011;59599;47.608;12.190;2023-08-12T04:17:44;3.67;;;2.40;;
13319;SDS011;59599;47.608;12.190;2023-08-12T04:20:10;2.65;;;2.38;;
13319;SDS011;59599;47.608;12.190;2023-08-12T04:22:36;3.10;;;2.80;;
13319;SDS011;59599;47.608;12.190;2023-08-12T04:25:02;3.50;;;2.65;;
13319;SDS011;59599;47.608;12.190;2023-08-12T04:27:28;5.65;;;2.50;;
13319;SDS011;59599;47.608;12.190;2023-08-12T04:29:54;2.85;;;2.50;;
13319;SDS011;59599;47.608;12.190;2023-08-12T04:32:20;2.92;;;2.63;;
13319;SDS011;59599;47.608;12.190;2023-08-12T04:34:46;3.42;;;2.60;;
13319;SDS011;59599;47.608;12.190;2023-08-12T04:37:12;3.25;;;2.60;;
13319;SDS011;59599;47.608;12.190;2023-08-12T04:39:38;5.97;;;2.47;;
13319;SDS011;59599;47.608;12.190;2023-08-12T04:42:05;3.33;;;2.78;;
13319;SDS011;59599;47.608;12.190;2023-08-12T04:44:31;4.00;;;2.30;;
13319;SDS011;59599;47.608;12.190;2023-08-12T04:46:57;3.05;;;2.53;;
13319;SDS011;59599;47.608;12.190;2023-08-12T04:49:23;2.63;;;2.25;;
13319;SDS011;59599;47.608;12.190;2023-08-12T04:51:51;6.30;;;2.63;;
13319;SDS011;59599;47.608;12.190;2023-08-12T04:54:17;4.00;;;2.58;;
13319;SDS011;59599;47.608;12.190;2023-08-12T04:56:43;3.30;;;2.78;;
13319;SDS011;59599;47.608;12.190;2023-08-12T04:59:09;5.05;;;2.70;;
13319;SDS011;59599;47.608;12.190;2023-08-12T05:01:35;2.40;;;2.20;;
13319;SDS011;59599;47.608;12.190;2023-08-12T05:04:02;3.65;;;2.60;;
13319;SDS011;59599;47.608;12.190;2023-08-12T05:06:28;3.10;;;2.63;;
13319;SDS011;59599;47.608;12.190;2023-08-12T05:08:54;5.78;;;2.40;;
13319;SDS011;59599;47.608;12.190;2023-08-12T05:11:20;7.43;;;2.85;;
13319;SDS011;59599;47.608;12.190;2023-08-12T05:13:45;3.85;;;2.83;;
13319;SDS011;59599;47.608;12.190;2023-08-12T05:16:11;4.18;;;2.40;;
13319;SDS011;59599;47.608;12.190;2023-08-12T05:18:37;4.47;;;2.58;;
13319;SDS011;59599;47.608;12.190;2023-08-12T05:21:03;4.30;;;2.58;;
13319;SDS011;59599;47.608;12.190;2023-08-12T05:23:29;3.88;;;2.30;;
13319;SDS011;59599;47.608;12.190;2023-08-12T05:25:54;3.65;;;2.58;;
13319;SDS011;59599;47.608;12.190;2023-08-12T05:28:20;2.42;;;2.22;;
13319;SDS011;59599;47.608;12.190;2023-08-12T05:30:46;4.15;;;2.50;;
13319;SDS011;59599;47.608;12.190;2023-08-12T05:33:12;3.22;;;2.40;;
13319;SDS011;59599;47.608;12.190;2023-08-12T05:35:38;3.08;;;2.60;;
13319;SDS011;59599;47.608;12.190;2023-08-12T05:38:04;5.32;;;2.47;;
13319;SDS011;59599;47.608;12.190;2023-08-12T05:40:30;3.47;;;2.47;;
13319;SDS011;59599;47.608;12.190;2023-08-12T05:42:56;3.78;;;2.60;;
13319;SDS011;59599;47.608;12.190;2023-08-12T05:45:22;6.00;;;2.88;;
13319;SDS011;59599;47.608;12.190;2023-08-12T05:47:47;3.33;;;3.03;;
13319;SDS011;59599;47.608;12.190;2023-08-12T05:50:13;6.53;;;3.15;;
13319;SDS011;59599;47.608;12.190;2023-08-12T05:52:38;7.20;;;3.05;;
13319;SDS011;59599;47.608;12.190;2023-08-12T05:55:04;6.07;;;2.83;;
13319;SDS011;59599;47.608;12.190;2023-08-12T05:57:30;3.83;;;2.95;;
13319;SDS011;59599;47.608;12.190;2023-08-12T05:59:56;4.78;;;2.70;;
13319;SDS011;59599;47.608;12.190;2023-08-12T06:02:22;3.60;;;3.00;;
13319;SDS011;59599;47.608;12.190;2023-08-12T06:04:48;4.05;;;2.92;;
13319;SDS011;59599;47.608;12.190;2023-08-12T06:07:14;6.32;;;3.25;;
13319;SDS011;59599;47.608;12.190;2023-08-12T06:09:39;4.20;;;2.85;;
13319;SDS011;59599;47.608;12.190;2023-08-12T06:12:05;5.72;;;2.83;;
13319;SDS011;59599;47.608;12.190;2023-08-12T06:14:31;4.47;;;2.67;;
13319;SDS011;59599;47.608;12.190;2023-08-12T06:16:57;2.97;;;2.47;;
13319;SDS011;59599;47.608;12.190;2023-08-12T06:19:23;3.45;;;2.38;;
13319;SDS011;59599;47.608;12.190;2023-08-12T06:21:49;3.70;;;2.80;;
13319;SDS011;59599;47.608;12.190;2023-08-12T06:24:14;5.55;;;2.58;;
13319;SDS011;59599;47.608;12.190;2023-08-12T06:26:40;4.90;;;3.33;;
13319;SDS011;59599;47.608;12.190;2023-08-12T06:29:05;4.65;;;2.90;;
13319;SDS011;59599;47.608;12.190;2023-08-12T06:31:31;2.72;;;2.45;;
13319;SDS011;59599;47.608;12.190;2023-08-12T06:33:57;4.18;;;2.53;;
13319;SDS011;59599;47.608;12.190;2023-08-12T06:36:23;2.83;;;2.60;;
13319;SDS011;59599;47.608;12.190;2023-08-12T06:38:48;3.25;;;2.50;;
13319;SDS011;59599;47.608;12.190;2023-08-12T06:41:14;3.08;;;2.63;;
13319;SDS011;59599;47.608;12.190;2023-08-12T06:43:40;5.05;;;2.67;;
13319;SDS011;59599;47.608;12.190;2023-08-12T06:46:05;3.60;;;2.60;;
13319;SDS011;59599;47.608;12.190;2023-08-12T06:48:31;3.58;;;2.22;;
13319;SDS011;59599;47.608;12.190;2023-08-12T06:50:57;3.38;;;2.47;;
13319;SDS011;59599;47.608;12.190;2023-08-12T06:53:24;2.65;;;2.45;;
13319;SDS011;59599;47.608;12.190;2023-08-12T06:55:50;5.38;;;2.38;;
13319;SDS011;59599;47.608;12.190;2023-08-12T06:58:16;2.92;;;2.63;;
13319;SDS011;59599;47.608;12.190;2023-08-12T07:00:42;4.05;;;2.10;;
13319;SDS011;59599;47.608;12.190;2023-08-12T07:03:08;2.80;;;2.35;;
13319;SDS011;59599;47.608;12.190;2023-08-12T07:05:34;3.67;;;2.30;;
13319;SDS011;59599;47.608;12.190;2023-08-12T07:08:00;3.30;;;2.35;;
13319;SDS011;59599;47.608;12.190;2023-08-12T07:10:26;2.50;;;2.28;;
13319;SDS011;59599;47.608;12.190;2023-08-12T07:12:52;3.63;;;2.50;;
13319;SDS011;59599;47.608;12.190;2023-08-12T07:15:18;2.42;;;2.22;;
13319;SDS011;59599;47.608;12.190;2023-08-12T07:17:44;3.92;;;2.50;;
13319;SDS011;59599;47.608;12.190;2023-08-12T07:20:09;2.72;;;2.33;;
13319;SDS011;59599;47.608;12.190;2023-08-12T07:22:35;2.55;;;2.35;;
13319;SDS011;59599;47.608;12.190;2023-08-12T07:25:00;4.22;;;2.80;;
13319;SDS011;59599;47.608;12.190;2023-08-12T07:27:27;2.65;;;2.45;;
13319;SDS011;59599;47.608;12.190;2023-08-12T07:29:53;2.67;;;2.30;;
13319;SDS011;59599;47.608;12.190;2023-08-12T07:32:19;2.20;;;2.00;;
13319;SDS011;59599;47.608;12.190;2023-08-12T07:34:44;2.40;;;2.20;;
13319;SDS011;59599;47.608;12.190;2023-08-12T07:37:10;3.17;;;2.20;;
13319;SDS011;59599;47.608;12.190;2023-08-12T07:39:36;2.65;;;2.40;;
13319;SDS011;59599;47.608;12.190;2023-08-12T07:42:03;2.70;;;2.22;;
13319;SDS011;59599;47.608;12.190;2023-08-12T07:44:29;2.40;;;1.85;;
13319;SDS011;59599;47.608;12.190;2023-08-12T07:46:55;3.72;;;2.17;;
13319;SDS011;59599;47.608;12.190;2023-08-12T07:49:21;4.65;;;2.35;;
13319;SDS011;59599;47.608;12.190;2023-08-12T07:51:47;2.78;;;2.33;;
13319;SDS011;59599;47.608;12.190;2023-08-12T07:54:13;2.47;;;2.28;;
13319;SDS011;59599;47.608;12.190;2023-08-12T07:56:39;2.72;;;2.17;;
13319;SDS011;59599;47.608;12.190;2023-08-12T07:59:05;2.65;;;2.22;;
13319;SDS011;59599;47.608;12.190;2023-08-12T08:01:31;2.40;;;2.20;;
13319;SDS011;59599;47.608;12.190;2023-08-12T08:03:56;2.30;;;2.10;;
13319;SDS011;59599;47.608;12.190;2023-08-12T08:06:22;2.72;;;2.28;;
13319;SDS011;59599;47.608;12.190;2023-08-12T08:08:51;3.78;;;2.65;;
13319;SDS011;59599;47.608;12.190;2023-08-12T08:11:17;5.32;;;2.00;;
13319;SDS011;59599;47.608;12.190;2023-08-12T08:13:43;2.10;;;1.90;;
13319;SDS011;59599;47.608;12.190;2023-08-12T08:16:09;4.75;;;2.10;;
13319;SDS011;59599;47.608;12.190;2023-08-12T08:18:34;2.63;;;1.90;;
13319;SDS011;59599;47.608;12.190;2023-08-12T08:21:00;2.30;;;2.10;;
13319;SDS011;59599;47.608;12.190;2023-08-12T08:23:26;2.38;;;2.17;;
13319;SDS011;59599;47.608;12.190;2023-08-12T08:25:51;2.83;;;2.08;;
13319;SDS011;59599;47.608;12.190;2023-08-12T08:28:17;2.50;;;2.10;;
13319;SDS011;59599;47.608;12.190;2023-08-12T08:30:43;2.33;;;2.13;;
13319;SDS011;59599;47.608;12.190;2023-08-12T08:33:09;3.38;;;2.40;;
13319;SDS011;59599;47.608;12.190;2023-08-12T08:35:35;5.07;;;2.45;;
13319;SDS011;59599;47.608;12.190;2023-08-12T08:38:01;2.60;;;2.40;;
13319;SDS011;59599;47.608;12.190;2023-08-12T08:40:26;4.40;;;2.50;;
13319;SDS011;59599;47.608;12.190;2023-08-12T08:42:53;2.40;;;2.20;;
13319;SDS011;59599;47.608;12.190;2023-08-12T08:45:19;2.65;;;2.03;;
13319;SDS011;59599;47.608;12.190;2023-08-12T08:47:48;3.72;;;2.03;;
13319;SDS011;59599;47.608;12.190;2023-08-12T08:50:16;3.20;;;2.15;;
13319;SDS011;59599;47.608;12.190;2023-08-12T08:52:43;5.65;;;3.45;;
13319;SDS011;59599;47.608;12.190;2023-08-12T08:55:09;3.60;;;2.25;;
13319;SDS011;59599;47.608;12.190;2023-08-12T08:57:37;2.60;;;2.40;;
13319;SDS011;59599;47.608;12.190;2023-08-12T09:00:03;2.55;;;2.35;;
13319;SDS011;59599;47.608;12.190;2023-08-12T09:02:32;2.17;;;1.90;;
13319;SDS011;59599;47.608;12.190;2023-08-12T09:04:58;1.95;;;1.80;;
13319;SDS011;59599;47.608;12.190;2023-08-12T09:07:25;2.50;;;2.05;;
13319;SDS011;59599;47.608;12.190;2023-08-12T09:09:51;7.40;;;2.53;;
13319;SDS011;59599;47.608;12.190;2023-08-12T09:12:19;2.38;;;2.17;;
13319;SDS011;59599;47.608;12.190;2023-08-12T09:14:45;2.80;;;2.60;;
13319;SDS011;59599;47.608;12.190;2023-08-12T09:17:11;2.42;;;2.17;;
13319;SDS011;59599;47.608;12.190;2023-08-12T09:19:36;4.50;;;4.05;;
13319;SDS011;59599;47.608;12.190;2023-08-12T09:22:03;3.03;;;2.45;;
13319;SDS011;59599;47.608;12.190;2023-08-12T09:24:30;3.03;;;2.50;;
13319;SDS011;59599;47.608;12.190;2023-08-12T09:26:55;3.00;;;2.70;;
13319;SDS011;59599;47.608;12.190;2023-08-12T09:29:31;2.83;;;2.58;;
13319;SDS011;59599;47.608;12.190;2023-08-12T09:34:54;2.72;;;2.53;;
13319;SDS011;59599;47.608;12.190;2023-08-12T09:37:21;3.05;;;2.75;;
13319;SDS011;59599;47.608;12.190;2023-08-12T09:39:48;6.20;;;2.45;;
13319;SDS011;59599;47.608;12.190;2023-08-12T09:42:15;2.45;;;2.17;;
13319;SDS011;59599;47.608;12.190;2023-08-12T09:44:42;3.88;;;2.47;;
13319;SDS011;59599;47.608;12.190;2023-08-12T09:47:08;5.32;;;3.72;;
13319;SDS011;59599;47.608;12.190;2023-08-12T09:49:34;2.92;;;2.60;;
13319;SDS011;59599;47.608;12.190;2023-08-12T09:52:01;2.50;;;2.30;;
13319;SDS011;59599;47.608;12.190;2023-08-12T09:54:27;5.00;;;2.30;;
13319;SDS011;59599;47.608;12.190;2023-08-12T09:56:57;3.40;;;2.28;;
13319;SDS011;59599;47.608;12.190;2023-08-12T09:59:24;3.03;;;2.20;;
13319;SDS011;59599;47.608;12.190;2023-08-12T10:01:55;3.45;;;2.50;;
13319;SDS011;59599;47.608;12.190;2023-08-12T10:04:22;2.78;;;2.20;;
13319;SDS011;59599;47.608;12.190;2023-08-12T10:06:50;6.28;;;2.20;;
13319;SDS011;59599;47.608;12.190;2023-08-12T10:09:16;2.95;;;2.00;;
13319;SDS011;59599;47.608;12.190;2023-08-12T10:11:43;2.53;;;2.28;;
13319;SDS011;59599;47.608;12.190;2023-08-12T10:14:11;3.60;;;2.20;;
13319;SDS011;59599;47.608;12.190;2023-08-12T10:16:37;4.22;;;2.03;;
13319;SDS011;59599;47.608;12.190;2023-08-12T10:19:05;2.30;;;2.10;;
13319;SDS011;59599;47.608;12.190;2023-08-12T10:21:31;2.95;;;2.10;;
13319;SDS011;59599;47.608;12.190;2023-08-12T10:24:00;5.15;;;2.05;;
13319;SDS011;59599;47.608;12.190;2023-08-12T10:26:28;4.30;;;1.73;;
13319;SDS011;59599;47.608;12.190;2023-08-12T10:28:55;2.30;;;2.10;;
13319;SDS011;59599;47.608;12.190;2023-08-12T10:31:21;2.30;;;2.10;;
13319;SDS011;59599;47.608;12.190;2023-08-12T10:33:46;3.47;;;2.20;;
13319;SDS011;59599;47.608;12.190;2023-08-12T10:36:15;2.88;;;2.17;;
13319;SDS011;59599;47.608;12.190;2023-08-12T10:38:41;3.05;;;2.40;;
13319;SDS011;59599;47.608;12.190;2023-08-12T10:41:15;3.08;;;2.30;;
13319;SDS011;59599;47.608;12.190;2023-08-12T10:43:51;4.55;;;2.13;;
13319;SDS011;59599;47.608;12.190;2023-08-12T10:46:36;2.88;;;2.30;;
13319;SDS011;59599;47.608;12.190;2023-08-12T10:49:09;2.40;;;2.20;;
13319;SDS011;59599;47.608;12.190;2023-08-12T10:51:39;2.63;;;2.42;;
13319;SDS011;59599;47.608;12.190;2023-08-12T10:54:09;2.05;;;1.85;;
13319;SDS011;59599;47.608;12.190;2023-08-12T10:59:49;2.47;;;2.17;;
13319;SDS011;59599;47.608;12.190;2023-08-12T11:04:53;3.13;;;1.92;;
13319;SDS011;59599;47.608;12.190;2023-08-12T11:07:19;2.92;;;2.30;;
13319;SDS011;59599;47.608;12.190;2023-08-12T11:09:46;3.15;;;2.20;;
13319;SDS011;59599;47.608;12.190;2023-08-12T11:12:18;3.40;;;2.28;;
13319;SDS011;59599;47.608;12.190;2023-08-12T11:14:53;2.40;;;1.70;;
13319;SDS011;59599;47.608;12.190;2023-08-12T11:17:19;2.17;;;1.98;;
13319;SDS011;59599;47.608;12.190;2023-08-12T11:19:45;4.00;;;2.03;;
13319;SDS011;59599;47.608;12.190;2023-08-12T11:22:11;2.47;;;2.17;;
13319;SDS011;59599;47.608;12.190;2023-08-12T11:24:40;4.95;;;2.20;;
13319;SDS011;59599;47.608;12.190;2023-08-12T11:27:09;2.00;;;1.90;;
13319;SDS011;59599;47.608;12.190;2023-08-12T11:29:35;2.17;;;1.92;;
13319;SDS011;59599;47.608;12.190;2023-08-12T11:32:02;4.63;;;2.00;;
13319;SDS011;59599;47.608;12.190;2023-08-12T11:34:28;2.00;;;1.83;;
13319;SDS011;59599;47.608;12.190;2023-08-12T11:36:53;3.67;;;2.40;;
13319;SDS011;59599;47.608;12.190;2023-08-12T11:39:19;2.90;;;2.10;;
13319;SDS011;59599;47.608;12.190;2023-08-12T11:41:45;2.40;;;2.20;;
13319;SDS011;59599;47.608;12.190;2023-08-12T11:44:15;2.83;;;2.10;;
13319;SDS011;59599;47.608;12.190;2023-08-12T11:46:41;2.75;;;2.22;;
13319;SDS011;59599;47.608;12.190;2023-08-12T11:49:06;2.38;;;2.17;;
13319;SDS011;59599;47.608;12.190;2023-08-12T11:51:33;2.63;;;2.33;;
13319;SDS011;59599;47.608;12.190;2023-08-12T11:54:00;3.10;;;2.40;;
13319;SDS011;59599;47.608;12.190;2023-08-12T11:56:26;4.47;;;2.08;;
13319;SDS011;59599;47.608;12.190;2023-08-12T11:58:52;3.47;;;2.20;;
13319;SDS011;59599;47.608;12.190;2023-08-12T12:01:21;2.40;;;2.20;;
13319;SDS011;59599;47.608;12.190;2023-08-12T12:03:51;2.53;;;2.33;;
13319;SDS011;59599;47.608;12.190;2023-08-12T12:06:17;3.75;;;2.28;;
13319;SDS011;59599;47.608;12.190;2023-08-12T12:08:46;5.28;;;1.95;;
13319;SDS011;59599;47.608;12.190;2023-08-12T12:11:13;2.70;;;2.17;;
13319;SDS011;59599;47.608;12.190;2023-08-12T12:13:39;2.90;;;2.15;;
13319;SDS011;59599;47.608;12.190;2023-08-12T12:16:09;2.10;;;1.95;;
13319;SDS011;59599;47.608;12.190;2023-08-12T12:18:35;2.85;;;2.00;;
13319;SDS011;59599;47.608;12.190;2023-08-12T12:21:01;5.50;;;1.83;;
13319;SDS011;59599;47.608;12.190;2023-08-12T12:23:30;2.95;;;2.00;;
13319;SDS011;59599;47.608;12.190;2023-08-12T12:26:02;3.70;;;2.20;;
13319;SDS011;59599;47.608;12.190;2023-08-12T12:28:29;2.35;;;1.98;;
13319;SDS011;59599;47.608;12.190;2023-08-12T12:30:55;3.30;;;2.10;;
13319;SDS011;59599;47.608;12.190;2023-08-12T12:33:20;2.72;;;2.03;;
13319;SDS011;59599;47.608;12.190;2023-08-12T12:35:46;2.17;;;2.00;;
13319;SDS011;59599;47.608;12.190;2023-08-12T12:38:12;3.47;;;2.10;;
13319;SDS011;59599;47.608;12.190;2023-08-12T12:40:38;3.17;;;2.22;;
13319;SDS011;59599;47.608;12.190;2023-08-12T12:43:03;5.55;;;2.10;;
13319;SDS011;59599;47.608;12.190;2023-08-12T12:45:29;2.38;;;2.17;;
13319;SDS011;59599;47.608;12.190;2023-08-12T12:47:55;4.75;;;2.05;;
13319;SDS011;59599;47.608;12.190;2023-08-12T12:50:20;4.93;;;2.00;;
13319;SDS011;59599;47.608;12.190;2023-08-12T12:52:46;2.30;;;2.08;;
13319;SDS011;59599;47.608;12.190;2023-08-12T12:55:12;3.65;;;2.10;;
13319;SDS011;59599;47.608;12.190;2023-08-12T12:57:37;4.30;;;2.30;;
13319;SDS011;59599;47.608;12.190;2023-08-12T13:00:04;6.15;;;2.35;;
13319;SDS011;59599;47.608;12.190;2023-08-12T13:02:30;2.40;;;2.05;;
13319;SDS011;59599;47.608;12.190;2023-08-12T13:04:56;2.63;;;2.00;;
13319;SDS011;59599;47.608;12.190;2023-08-12T13:07:21;3.85;;;2.28;;
13319;SDS011;59599;47.608;12.190;2023-08-12T13:09:47;4.13;;;2.00;;
13319;SDS011;59599;47.608;12.190;2023-08-12T13:12:13;2.92;;;1.88;;
13319;SDS011;59599;47.608;12.190;2023-08-12T13:14:39;2.67;;;1.92;;
13319;SDS011;59599;47.608;12.190;2023-08-12T13:17:05;4.25;;;2.10;;
13319;SDS011;59599;47.608;12.190;2023-08-12T13:19:31;1.80;;;1.70;;
13319;SDS011;59599;47.608;12.190;2023-08-12T13:21:57;2.38;;;2.17;;
13319;SDS011;59599;47.608;12.190;2023-08-12T13:24:22;3.55;;;2.42;;
13319;SDS011;59599;47.608;12.190;2023-08-12T13:26:48;4.93;;;2.60;;
13319;SDS011;59599;47.608;12.190;2023-08-12T13:29:13;2.53;;;2.33;;
13319;SDS011;59599;47.608;12.190;2023-08-12T13:31:39;3.10;;;2.20;;
13319;SDS011;59599;47.608;12.190;2023-08-12T13:34:05;3.03;;;2.45;;
13319;SDS011;59599;47.608;12.190;2023-08-12T13:36:31;2.72;;;2.40;;
13319;SDS011;59599;47.608;12.190;2023-08-12T13:38:57;2.95;;;2.30;;
13319;SDS011;59599;47.608;12.190;2023-08-12T13:41:22;6.20;;;2.70;;
13319;SDS011;59599;47.608;12.190;2023-08-12T13:43:48;3.90;;;2.67;;
13319;SDS011;59599;47.608;12.190;2023-08-12T13:46:14;2.70;;;2.15;;
13319;SDS011;59599;47.608;12.190;2023-08-12T13:48:40;2.00;;;1.90;;
13319;SDS011;59599;47.608;12.190;2023-08-12T13:51:07;2.80;;;2.22;;
13319;SDS011;59599;47.608;12.190;2023-08-12T13:53:33;6.45;;;2.00;;
13319;SDS011;59599;47.608;12.190;2023-08-12T13:55:59;4.55;;;2.75;;
13319;SDS011;59599;47.608;12.190;2023-08-12T13:58:24;2.40;;;2.15;;
13319;SDS011;59599;47.608;12.190;2023-08-12T14:00:50;5.25;;;2.53;;
13319;SDS011;59599;47.608;12.190;2023-08-12T14:03:16;4.45;;;2.20;;
13319;SDS011;59599;47.608;12.190;2023-08-12T14:05:41;3.78;;;2.20;;
13319;SDS011;59599;47.608;12.190;2023-08-12T14:08:07;2.53;;;2.25;;
13319;SDS011;59599;47.608;12.190;2023-08-12T14:10:33;3.15;;;2.20;;
13319;SDS011;59599;47.608;12.190;2023-08-12T14:12:58;4.93;;;2.60;;
13319;SDS011;59599;47.608;12.190;2023-08-12T14:15:25;3.03;;;2.15;;
13319;SDS011;59599;47.608;12.190;2023-08-12T14:17:51;3.70;;;2.40;;
13319;SDS011;59599;47.608;12.190;2023-08-12T14:20:16;3.55;;;2.42;;
13319;SDS011;59599;47.608;12.190;2023-08-12T14:22:42;2.75;;;2.20;;
13319;SDS011;59599;47.608;12.190;2023-08-12T14:25:09;2.58;;;2.38;;
13319;SDS011;59599;47.608;12.190;2023-08-12T14:27:36;3.25;;;2.22;;
13319;SDS011;59599;47.608;12.190;2023-08-12T14:30:01;2.75;;;2.38;;
13319;SDS011;59599;47.608;12.190;2023-08-12T14:32:27;2.20;;;2.00;;
13319;SDS011;59599;47.608;12.190;2023-08-12T14:34:53;5.28;;;2.50;;
13319;SDS011;59599;47.608;12.190;2023-08-12T14:37:19;2.67;;;2.00;;
13319;SDS011;59599;47.608;12.190;2023-08-12T14:39:45;7.25;;;2.63;;
13319;SDS011;59599;47.608;12.190;2023-08-12T14:42:11;2.88;;;2.20;;
13319;SDS011;59599;47.608;12.190;2023-08-12T14:44:37;3.15;;;2.47;;
13319;SDS011;59599;47.608;12.190;2023-08-12T14:47:03;7.32;;;2.50;;
13319;SDS011;59599;47.608;12.190;2023-08-12T14:49:29;3.78;;;2.78;;
13319;SDS011;59599;47.608;12.190;2023-08-12T14:51:55;4.28;;;2.60;;
13319;SDS011;59599;47.608;12.190;2023-08-12T14:54:23;3.47;;;2.10;;
13319;SDS011;59599;47.608;12.190;2023-08-12T14:56:49;3.05;;;2.30;;
13319;SDS011;59599;47.608;12.190;2023-08-12T14:59:15;3.80;;;2.42;;
13319;SDS011;59599;47.608;12.190;2023-08-12T15:01:41;3.72;;;2.47;;
13319;SDS011;59599;47.608;12.190;2023-08-12T15:04:06;2.80;;;2.22;;
13319;SDS011;59599;47.608;12.190;2023-08-12T15:06:32;4.82;;;2.40;;
13319;SDS011;59599;47.608;12.190;2023-08-12T15:08:58;2.53;;;2.25;;
13319;SDS011;59599;47.608;12.190;2023-08-12T15:11:23;2.88;;;2.50;;
13319;SDS011;59599;47.608;12.190;2023-08-12T15:13:50;3.22;;;2.40;;
13319;SDS011;59599;47.608;12.190;2023-08-12T15:16:15;4.28;;;2.45;;
13319;SDS011;59599;47.608;12.190;2023-08-12T15:18:41;5.32;;;2.60;;
13319;SDS011;59599;47.608;12.190;2023-08-12T15:21:07;4.18;;;2.30;;
13319;SDS011;59599;47.608;12.190;2023-08-12T15:23:33;4.65;;;2.60;;
13319;SDS011;59599;47.608;12.190;2023-08-12T15:26:00;7.57;;;2.70;;
13319;SDS011;59599;47.608;12.190;2023-08-12T15:28:27;4.90;;;2.95;;
13319;SDS011;59599;47.608;12.190;2023-08-12T15:30:53;5.57;;;2.92;;
13319;SDS011;59599;47.608;12.190;2023-08-12T15:33:19;4.68;;;2.42;;
13319;SDS011;59599;47.608;12.190;2023-08-12T15:35:44;3.50;;;2.47;;
13319;SDS011;59599;47.608;12.190;2023-08-12T15:38:10;3.80;;;2.50;;
13319;SDS011;59599;47.608;12.190;2023-08-12T15:40:36;5.18;;;3.33;;
13319;SDS011;59599;47.608;12.190;2023-08-12T15:43:03;3.83;;;3.13;;
13319;SDS011;59599;47.608;12.190;2023-08-12T15:45:29;5.70;;;3.47;;
13319;SDS011;59599;47.608;12.190;2023-08-12T15:47:54;9.02;;;3.80;;
13319;SDS011;59599;47.608;12.190;2023-08-12T15:50:20;5.18;;;3.25;;
13319;SDS011;59599;47.608;12.190;2023-08-12T15:52:46;8.23;;;3.05;;
13319;SDS011;59599;47.608;12.190;2023-08-12T15:55:12;14.23;;;3.63;;
13319;SDS011;59599;47.608;12.190;2023-08-12T15:57:38;5.57;;;3.03;;
13319;SDS011;59599;47.608;12.190;2023-08-12T16:00:04;2.85;;;2.42;;
13319;SDS011;59599;47.608;12.190;2023-08-12T16:02:32;6.60;;;2.58;;
13319;SDS011;59599;47.608;12.190;2023-08-12T16:04:59;3.63;;;2.55;;
13319;SDS011;59599;47.608;12.190;2023-08-12T16:07:25;2.72;;;2.40;;
13319;SDS011;59599;47.608;12.190;2023-08-12T16:09:50;2.60;;;2.33;;
13319;SDS011;59599;47.608;12.190;2023-08-12T16:12:16;3.95;;;2.53;;
13319;SDS011;59599;47.608;12.190;2023-08-12T16:14:44;3.63;;;2.67;;
13319;SDS011;59599;47.608;12.190;2023-08-12T16:17:10;4.15;;;2.60;;